createdAt,value
2022-10-21T00:00:55.043Z,8.38
2022-10-21T00:03:24.043Z,8.07
2022-10-21T00:05:52.345Z,7.55
2022-10-21T00:08:20.470Z,7.47
2022-10-21T00:10:54.673Z,7.80
2022-10-21T00:13:23.313Z,7.70
2022-10-21T00:16:09.153Z,8.25
2022-10-21T00:18:37.939Z,7.75
2022-10-21T00:21:10.275Z,7.43
2022-10-21T00:23:37.967Z,8.07
2022-10-21T00:26:06.198Z,8.45
2022-10-21T00:28:33.914Z,8.02
2022-10-21T00:31:01.395Z,8.10
2022-10-21T00:33:29.426Z,7.68
2022-10-21T00:35:59.190Z,7.68
2022-10-21T00:38:26.540Z,7.95
2022-10-21T00:40:53.973Z,8.35
2022-10-21T00:43:21.109Z,9.20
2022-10-21T00:45:52.769Z,8.20
2022-10-21T00:48:30.865Z,9.02
2022-10-21T00:51:06.597Z,8.93
2022-10-21T00:53:37.445Z,9.35
2022-10-21T00:56:15.414Z,8.98
2022-10-21T00:58:45.768Z,9.40
2022-10-21T01:01:16.648Z,8.57
2022-10-21T01:03:46.951Z,8.55
2022-10-21T01:06:15.867Z,8.73
2022-10-21T01:08:43.754Z,9.10
2022-10-21T01:11:16.079Z,9.48
2022-10-21T01:14:03.746Z,9.82
2022-10-21T01:16:48.235Z,8.95
2022-10-21T01:19:35.987Z,9.80
2022-10-21T01:22:56.769Z,9.50
2022-10-21T01:25:45.655Z,8.43
2022-10-21T01:28:24.996Z,9.52
2022-10-21T01:31:27.409Z,9.23
2022-10-21T01:33:54.588Z,8.98
2022-10-21T01:36:28.739Z,9.70
2022-10-21T01:39:31.528Z,8.48
2022-10-21T01:42:11.540Z,9.15
2022-10-21T01:44:58.075Z,8.98
2022-10-21T01:47:32.972Z,9.15
2022-10-21T01:50:25.579Z,10.02
2022-10-21T01:52:58.031Z,10.10
2022-10-21T01:55:30.038Z,9.07
2022-10-21T01:58:04.336Z,9.30
2022-10-21T02:00:33.988Z,8.95
2022-10-21T02:03:05.216Z,9.27
2022-10-21T02:05:33.347Z,9.73
2022-10-21T02:08:00.599Z,9.15
2022-10-21T02:10:33.761Z,9.80
2022-10-21T02:13:04.696Z,9.98
2022-10-21T02:15:34.702Z,10.00
2022-10-21T02:18:08.460Z,9.35
2022-10-21T02:20:41.349Z,9.60
2022-10-21T02:23:12.825Z,10.15
2022-10-21T02:25:42.865Z,10.00
2022-10-21T02:28:12.009Z,10.43
2022-10-21T02:31:09.696Z,10.32
2022-10-21T02:34:08.107Z,10.02
2022-10-21T02:36:42.286Z,10.43
2022-10-21T02:39:19.109Z,9.77
2022-10-21T02:41:50.376Z,10.35
2022-10-21T02:44:17.833Z,10.10
2022-10-21T02:46:48.195Z,10.68
2022-10-21T02:51:43.151Z,8.80
2022-10-21T02:54:10.318Z,10.23
2022-10-21T02:56:37.507Z,9.75
2022-10-21T02:59:04.717Z,9.95
2022-10-21T03:01:32.051Z,10.57
2022-10-21T03:03:59.171Z,10.38
2022-10-21T03:06:26.429Z,9.93
2022-10-21T03:08:53.842Z,10.88
2022-10-21T03:11:21.176Z,10.55
2022-10-21T03:13:48.267Z,11.95
2022-10-21T03:16:15.620Z,10.70
2022-10-21T03:18:42.966Z,10.82
2022-10-21T03:21:10.545Z,11.00
2022-10-21T03:23:37.567Z,10.48
2022-10-21T03:26:04.717Z,9.77
2022-10-21T03:28:31.797Z,11.55
2022-10-21T03:30:59.097Z,11.20
2022-10-21T03:33:26.418Z,9.95
2022-10-21T03:35:53.475Z,10.73
2022-10-21T03:38:20.769Z,10.70
2022-10-21T03:40:48.136Z,10.48
2022-10-21T03:43:15.441Z,9.73
2022-10-21T03:45:42.819Z,10.90
2022-10-21T03:48:10.085Z,10.25
2022-10-21T03:50:37.266Z,10.35
2022-10-21T03:53:13.702Z,10.13
2022-10-21T03:55:46.107Z,10.20
2022-10-21T03:58:13.397Z,10.70
2022-10-21T04:00:40.606Z,11.68
2022-10-21T04:03:07.733Z,10.40
2022-10-21T04:05:35.478Z,10.80
2022-10-21T04:08:02.817Z,10.20
2022-10-21T04:10:30.169Z,12.27
2022-10-21T04:12:57.507Z,11.45
2022-10-21T04:15:24.637Z,12.13
2022-10-21T04:17:51.724Z,12.20
2022-10-21T04:20:19.615Z,11.68
2022-10-21T04:22:47.047Z,12.43
2022-10-21T04:25:14.335Z,11.23
2022-10-21T04:27:41.757Z,12.15
2022-10-21T04:30:09.413Z,13.43
2022-10-21T04:32:36.766Z,12.75
2022-10-21T04:35:04.556Z,12.23
2022-10-21T04:37:31.650Z,12.70
2022-10-21T04:39:58.780Z,11.55
2022-10-21T04:42:25.941Z,12.45
2022-10-21T04:44:53.177Z,12.98
2022-10-21T04:47:20.599Z,11.45
2022-10-21T04:49:47.849Z,12.15
2022-10-21T04:52:15.124Z,12.68
2022-10-21T04:54:42.510Z,11.07
2022-10-21T04:57:09.870Z,11.13
2022-10-21T04:59:36.885Z,11.63
2022-10-21T05:02:04.080Z,11.75
2022-10-21T05:04:31.433Z,11.15
2022-10-21T05:06:58.504Z,11.45
2022-10-21T05:09:25.699Z,11.38
2022-10-21T05:11:52.902Z,11.65
2022-10-21T05:14:22.598Z,11.32
2022-10-21T05:16:50.529Z,11.35
2022-10-21T05:19:17.871Z,11.35
2022-10-21T05:21:47.165Z,11.27
2022-10-21T05:24:16.981Z,10.60
2022-10-21T05:26:44.177Z,12.93
2022-10-21T05:29:11.386Z,11.30
2022-10-21T05:31:38.570Z,12.60
2022-10-21T05:34:05.907Z,12.13
2022-10-21T05:36:33.175Z,11.30
2022-10-21T05:39:00.406Z,12.20
2022-10-21T05:41:27.418Z,11.43
2022-10-21T05:43:54.545Z,11.88
2022-10-21T05:46:21.861Z,11.30
2022-10-21T05:51:26.535Z,11.55
2022-10-21T05:53:55.009Z,11.32
2022-10-21T05:56:22.743Z,11.50
2022-10-21T05:58:50.445Z,12.07
2022-10-21T06:01:17.682Z,11.20
2022-10-21T06:03:44.837Z,11.10
2022-10-21T06:06:12.236Z,11.30
2022-10-21T06:08:39.663Z,12.25
2022-10-21T06:11:13.098Z,11.95
2022-10-21T06:13:40.374Z,12.13
2022-10-21T06:16:08.589Z,12.10
2022-10-21T06:18:36.404Z,11.15
2022-10-21T06:21:04.157Z,12.48
2022-10-21T06:23:31.781Z,12.52
2022-10-21T06:26:00.047Z,12.77
2022-10-21T06:28:28.615Z,12.60
2022-10-21T06:30:56.466Z,11.55
2022-10-21T06:33:26.820Z,13.77
2022-10-21T06:35:56.011Z,12.95
2022-10-21T06:38:24.227Z,13.65
2022-10-21T06:40:51.457Z,13.30
2022-10-21T06:43:19.095Z,11.82
2022-10-21T06:45:46.435Z,12.60
2022-10-21T06:48:14.334Z,13.55
2022-10-21T06:50:41.688Z,12.70
2022-10-21T06:53:08.938Z,12.93
2022-10-21T06:55:36.259Z,12.45
2022-10-21T06:58:03.715Z,13.23
2022-10-21T07:03:03.133Z,13.10
2022-10-21T07:05:30.343Z,14.40
2022-10-21T07:07:57.625Z,13.85
2022-10-21T07:10:24.869Z,13.20
2022-10-21T07:12:52.436Z,15.63
2022-10-21T07:15:19.626Z,13.50
2022-10-21T07:17:46.857Z,14.38
2022-10-21T07:20:14.088Z,15.55
2022-10-21T07:22:41.137Z,17.80
2022-10-21T07:25:08.608Z,12.90
2022-10-21T07:27:35.765Z,15.35
2022-10-21T07:30:03.077Z,14.57
2022-10-21T07:32:30.320Z,13.55
2022-10-21T07:34:57.547Z,14.85
2022-10-21T07:37:24.860Z,15.23
2022-10-21T07:39:52.136Z,19.17
2022-10-21T07:42:19.372Z,15.18
2022-10-21T07:44:46.667Z,16.40
2022-10-21T07:47:13.898Z,36.58
2022-10-21T07:49:41.236Z,16.00
2022-10-21T07:52:08.409Z,25.08
2022-10-21T07:54:35.746Z,14.57
2022-10-21T07:57:03.248Z,13.60
2022-10-21T07:59:31.525Z,13.68
2022-10-21T08:01:58.831Z,13.55
2022-10-21T08:04:30.257Z,13.95
2022-10-21T08:06:57.987Z,14.55
2022-10-21T08:09:26.808Z,13.75
2022-10-21T08:11:54.361Z,13.93
2022-10-21T08:14:21.677Z,13.75
2022-10-21T08:16:53.099Z,13.45
2022-10-21T08:19:24.827Z,14.18
2022-10-21T08:21:52.313Z,14.43
2022-10-21T08:24:19.794Z,13.25
2022-10-21T08:26:46.928Z,13.60
2022-10-21T08:29:14.156Z,12.68
2022-10-21T08:31:41.639Z,13.45
2022-10-21T08:34:09.145Z,12.80
2022-10-21T08:36:38.035Z,13.02
2022-10-21T08:39:05.839Z,13.75
2022-10-21T08:42:08.110Z,13.73
2022-10-21T08:45:07.583Z,16.50
2022-10-21T08:47:45.671Z,13.47
2022-10-21T08:50:21.696Z,13.70
2022-10-21T08:53:02.341Z,13.18
2022-10-21T08:55:35.157Z,14.13
2022-10-21T08:58:03.932Z,14.07
2022-10-21T09:00:47.065Z,14.18
2022-10-21T09:03:33.317Z,14.07
2022-10-21T09:06:21.682Z,14.65
2022-10-21T09:09:21.378Z,12.85
2022-10-21T09:12:20.388Z,14.27
2022-10-21T09:14:57.631Z,22.90
2022-10-21T09:17:43.555Z,13.88
2022-10-21T09:20:19.533Z,14.50
2022-10-21T09:23:40.643Z,14.85
2022-10-21T09:26:33.075Z,13.88
2022-10-21T09:29:16.576Z,12.68
2022-10-21T09:31:44.598Z,14.40
2022-10-21T09:34:42.674Z,15.57
2022-10-21T09:37:18.745Z,12.38
2022-10-21T09:39:54.716Z,15.65
2022-10-21T09:42:42.659Z,14.10
2022-10-21T09:45:23.417Z,12.23
2022-10-21T09:48:00.118Z,14.13
2022-10-21T09:50:29.181Z,13.75
2022-10-21T09:53:02.929Z,15.93
2022-10-21T09:55:31.550Z,14.57
2022-10-21T09:58:03.794Z,14.77
2022-10-21T10:00:47.055Z,12.85
2022-10-21T10:03:33.533Z,12.95
2022-10-21T10:06:01.843Z,13.30
2022-10-21T10:08:40.213Z,13.82
2022-10-21T10:11:10.160Z,13.35
2022-10-21T10:13:43.412Z,13.90
2022-10-21T10:16:18.919Z,13.65
2022-10-21T10:18:46.299Z,13.05
2022-10-21T10:21:23.145Z,13.32
2022-10-21T10:23:55.649Z,13.27
2022-10-21T10:26:30.653Z,14.27
2022-10-21T10:29:08.695Z,18.90
2022-10-21T10:31:37.305Z,12.68
2022-10-21T10:34:09.307Z,12.98
2022-10-21T10:36:39.796Z,13.57
2022-10-21T10:39:17.385Z,13.68
2022-10-21T10:41:48.681Z,13.40
2022-10-21T10:44:31.892Z,14.98
2022-10-21T10:47:03.237Z,14.43
2022-10-21T10:49:40.085Z,14.65
2022-10-21T10:52:17.225Z,15.25
2022-10-21T10:54:44.737Z,16.52
2022-10-21T10:57:14.524Z,23.30
2022-10-21T10:59:41.719Z,25.55
2022-10-21T11:02:22.448Z,23.75
2022-10-21T11:05:08.569Z,13.70
2022-10-21T11:07:49.366Z,12.40
2022-10-21T11:10:39.547Z,13.18
2022-10-21T11:13:19.193Z,14.68
2022-10-21T11:16:50.423Z,13.57
2022-10-21T11:19:34.790Z,13.00
2022-10-21T11:22:36.022Z,13.43
2022-10-21T11:25:11.862Z,13.20
2022-10-21T11:28:02.606Z,13.55
2022-10-21T11:30:51.685Z,13.18
2022-10-21T11:34:01.780Z,12.10
2022-10-21T11:36:48.486Z,13.38
2022-10-21T11:39:36.661Z,12.68
2022-10-21T11:42:23.337Z,13.30
2022-10-21T11:44:53.486Z,13.05
2022-10-21T11:47:26.216Z,15.32
2022-10-21T11:50:12.219Z,11.82
2022-10-21T11:52:48.863Z,13.75
2022-10-21T11:55:31.400Z,12.88
2022-10-21T11:58:24.351Z,14.50
2022-10-21T12:00:59.018Z,12.30
2022-10-21T12:03:37.275Z,14.30
2022-10-21T12:06:46.067Z,13.45
2022-10-21T12:09:19.542Z,12.02
2022-10-21T12:11:52.074Z,12.90
2022-10-21T12:14:21.946Z,12.88
2022-10-21T12:16:50.586Z,13.15
2022-10-21T12:19:18.098Z,12.93
2022-10-21T12:21:46.166Z,13.25
2022-10-21T12:24:47.645Z,13.05
2022-10-21T12:27:56.010Z,12.25
2022-10-21T12:30:44.611Z,12.32
2022-10-21T12:33:11.917Z,11.55
2022-10-21T12:36:12.191Z,12.82
2022-10-21T12:38:42.240Z,12.30
2022-10-21T12:41:24.700Z,13.07
2022-10-21T12:44:04.137Z,11.93
2022-10-21T12:46:36.212Z,12.32
2022-10-21T12:49:28.123Z,12.02
2022-10-21T12:52:03.770Z,11.93
2022-10-21T12:55:02.395Z,14.73
2022-10-21T12:57:33.483Z,13.13
2022-10-21T13:00:28.654Z,13.95
2022-10-21T13:03:03.292Z,15.63
2022-10-21T13:05:39.806Z,14.13
2022-10-21T13:08:24.641Z,16.75
2022-10-21T13:11:06.533Z,12.80
2022-10-21T13:13:33.922Z,14.13
2022-10-21T13:16:22.880Z,19.17
2022-10-21T13:19:18.215Z,13.45
2022-10-21T13:21:52.855Z,14.38
2022-10-21T13:24:30.755Z,14.77
2022-10-21T13:27:03.970Z,13.73
2022-10-21T13:29:33.574Z,14.63
2022-10-21T13:32:17.688Z,13.90
2022-10-21T13:34:51.207Z,13.05
2022-10-21T13:37:52.570Z,13.77
2022-10-21T13:40:22.857Z,12.68
2022-10-21T13:42:58.126Z,13.63
2022-10-21T13:45:45.700Z,13.13
2022-10-21T13:48:15.888Z,13.00
2022-10-21T13:50:46.038Z,13.35
2022-10-21T13:53:37.314Z,13.82
2022-10-21T13:56:09.056Z,14.07
2022-10-21T13:58:39.649Z,13.40
2022-10-21T14:01:12.798Z,14.68
2022-10-21T14:03:42.370Z,14.35
2022-10-21T14:06:13.029Z,13.30
2022-10-21T14:08:46.327Z,13.93
2022-10-21T14:11:19.197Z,13.65
2022-10-21T14:13:48.685Z,13.77
2022-10-21T14:16:30.323Z,18.40
2022-10-21T14:18:59.060Z,14.60
2022-10-21T14:21:32.587Z,14.95
2022-10-21T14:24:01.119Z,14.55
2022-10-21T14:26:32.065Z,15.50
2022-10-21T14:29:01.278Z,15.65
2022-10-21T14:31:28.833Z,14.88
2022-10-21T14:33:56.374Z,14.23
2022-10-21T14:36:26.259Z,14.85
2022-10-21T14:39:07.860Z,14.27
2022-10-21T14:41:38.068Z,14.52
2022-10-21T14:44:16.717Z,13.73
2022-10-21T14:46:47.564Z,13.75
2022-10-21T14:49:42.029Z,14.75
2022-10-21T14:52:17.405Z,15.30
2022-10-21T14:54:49.765Z,14.18
2022-10-21T14:57:39.738Z,15.18
2022-10-21T15:00:19.865Z,15.00
2022-10-21T15:02:48.543Z,52.65
2022-10-21T15:05:34.552Z,54.42
2022-10-21T15:08:34.644Z,28.15
2022-10-21T15:11:12.476Z,16.85
2022-10-21T15:13:39.592Z,15.75
2022-10-21T15:16:19.145Z,15.80
2022-10-21T15:18:52.974Z,15.07
2022-10-21T15:21:36.201Z,14.82
2022-10-21T15:24:05.808Z,15.02
2022-10-21T15:26:38.315Z,15.85
2022-10-21T15:29:15.048Z,15.40
2022-10-21T15:31:42.878Z,15.73
2022-10-21T15:34:14.666Z,15.75
2022-10-21T15:36:43.086Z,14.85
2022-10-21T15:39:11.117Z,15.38
2022-10-21T15:41:39.485Z,16.40
2022-10-21T15:44:29.224Z,17.88
2022-10-21T15:47:00.886Z,15.45
2022-10-21T15:49:41.677Z,15.85
2022-10-21T15:52:09.995Z,15.55
2022-10-21T15:54:37.328Z,16.73
2022-10-21T15:57:15.684Z,16.38
2022-10-21T15:59:43.430Z,14.98
2022-10-21T16:02:16.911Z,16.30
2022-10-21T16:04:46.068Z,17.65
2022-10-21T16:07:29.702Z,16.75
2022-10-21T16:09:57.394Z,16.55
2022-10-21T16:12:24.571Z,17.15
2022-10-21T16:14:51.698Z,18.65
2022-10-21T16:17:19.645Z,18.77
2022-10-21T16:19:46.939Z,18.00
2022-10-21T16:22:20.525Z,18.80
2022-10-21T16:24:47.737Z,18.17
2022-10-21T16:27:26.414Z,18.38
2022-10-21T16:29:58.734Z,18.98
2022-10-21T16:32:25.965Z,21.10
2022-10-21T16:34:53.096Z,21.05
2022-10-21T16:37:27.818Z,21.50
2022-10-21T16:39:55.121Z,20.58
2022-10-21T16:42:22.336Z,20.08
2022-10-21T16:44:50.865Z,19.33
2022-10-21T16:47:20.474Z,19.67
2022-10-21T16:49:49.447Z,19.83
2022-10-21T16:52:17.178Z,19.73
2022-10-21T16:54:48.641Z,17.77
2022-10-21T16:57:16.382Z,18.13
2022-10-21T16:59:43.690Z,18.05
2022-10-21T17:02:20.885Z,17.42
2022-10-21T17:04:48.200Z,17.13
2022-10-21T17:07:15.345Z,17.77
2022-10-21T17:09:42.435Z,16.85
2022-10-21T17:12:11.316Z,17.23
2022-10-21T17:14:38.550Z,17.40
2022-10-21T17:17:05.654Z,18.17
2022-10-21T17:19:33.127Z,18.33
2022-10-21T17:22:00.321Z,18.23
2022-10-21T17:24:28.315Z,17.88
2022-10-21T17:26:57.926Z,16.83
2022-10-21T17:29:25.251Z,17.40
2022-10-21T17:31:52.362Z,18.13
2022-10-21T17:34:27.126Z,16.63
2022-10-21T17:36:54.555Z,17.15
2022-10-21T17:39:22.487Z,17.45
2022-10-21T17:41:50.291Z,17.67
2022-10-21T17:44:19.390Z,16.63
2022-10-21T17:46:48.039Z,17.40
2022-10-21T17:49:15.809Z,17.73
2022-10-21T17:51:43.268Z,17.00
2022-10-21T17:54:11.050Z,17.10
2022-10-21T17:56:38.731Z,16.13
2022-10-21T17:59:05.850Z,16.60
2022-10-21T18:01:33.235Z,16.83
2022-10-21T18:04:00.398Z,16.70
2022-10-21T18:06:27.846Z,17.38
2022-10-21T18:08:57.226Z,16.52
2022-10-21T18:11:24.780Z,16.30
2022-10-21T18:13:55.043Z,17.45
2022-10-21T18:16:24.335Z,16.73
2022-10-21T18:18:52.016Z,16.52
2022-10-21T18:21:22.049Z,17.67
2022-10-21T18:23:52.764Z,17.30
2022-10-21T18:26:25.598Z,16.77
2022-10-21T18:28:57.467Z,18.25
2022-10-21T18:31:26.588Z,17.77
2022-10-21T18:33:55.468Z,18.20
2022-10-21T18:36:23.817Z,17.27
2022-10-21T18:38:51.134Z,18.80
2022-10-21T18:41:21.143Z,18.35
2022-10-21T18:46:21.230Z,17.17
2022-10-21T18:48:48.895Z,18.23
2022-10-21T18:51:17.440Z,17.85
2022-10-21T18:53:48.452Z,18.58
2022-10-21T18:56:18.421Z,18.33
2022-10-21T18:58:45.765Z,17.42
2022-10-21T19:01:15.180Z,18.15
2022-10-21T19:03:43.479Z,17.70
2022-10-21T19:06:36.261Z,18.95
2022-10-21T19:09:13.499Z,18.15
2022-10-21T19:11:41.699Z,17.88
2022-10-21T19:14:11.428Z,17.15
2022-10-21T19:16:41.457Z,17.83
2022-10-21T19:19:09.611Z,17.63
2022-10-21T19:21:36.961Z,17.73
2022-10-21T19:24:04.738Z,19.63
2022-10-21T19:26:33.460Z,18.17
2022-10-21T19:29:16.748Z,17.10
2022-10-21T19:34:17.934Z,18.40
2022-10-21T19:36:45.077Z,19.05
2022-10-21T19:39:13.144Z,17.50
2022-10-21T19:41:41.026Z,20.00
2022-10-21T19:44:08.637Z,19.60
2022-10-21T19:46:36.094Z,19.88
2022-10-21T19:49:05.150Z,18.63
2022-10-21T19:51:32.886Z,20.70
2022-10-21T19:54:00.227Z,19.90
2022-10-21T19:56:30.802Z,19.65
2022-10-21T19:59:00.598Z,21.30
2022-10-21T20:01:27.843Z,21.27
2022-10-21T20:03:55.783Z,22.67
2022-10-21T20:06:28.876Z,21.80
2022-10-21T20:08:59.200Z,21.70
2022-10-21T20:13:54.996Z,21.73
2022-10-21T20:16:27.379Z,22.70
2022-10-21T20:18:55.924Z,22.20
2022-10-21T20:21:24.306Z,20.98
2022-10-21T20:23:51.859Z,23.10
2022-10-21T20:26:19.226Z,21.55
2022-10-21T20:28:46.622Z,23.30
2022-10-21T20:31:15.757Z,21.75
2022-10-21T20:33:48.736Z,22.73
2022-10-21T20:36:21.979Z,22.08
2022-10-21T20:38:50.083Z,22.63
2022-10-21T20:41:26.208Z,23.35
2022-10-21T20:43:54.363Z,22.35
2022-10-21T20:46:25.276Z,22.95
2022-10-21T20:48:54.115Z,22.95
2022-10-21T20:51:27.225Z,22.92
2022-10-21T20:53:56.985Z,23.42
2022-10-21T20:56:28.010Z,24.17
2022-10-21T20:58:55.432Z,24.88
2022-10-21T21:01:28.108Z,25.33
2022-10-21T21:03:58.128Z,25.58
2022-10-21T21:06:26.710Z,24.50
2022-10-21T21:09:22.221Z,25.42
2022-10-21T21:11:41.383Z,26.73
2022-10-21T21:14:08.663Z,25.75
2022-10-21T21:16:35.945Z,26.67
2022-10-21T21:19:05.587Z,26.35
2022-10-21T21:21:35.571Z,26.80
2022-10-21T21:24:02.861Z,27.40
2022-10-21T21:26:35.283Z,25.55
2022-10-21T21:29:03.106Z,25.23
2022-10-21T21:31:31.490Z,27.15
2022-10-21T21:33:59.157Z,27.38
2022-10-21T21:36:26.828Z,25.10
2022-10-21T21:38:54.410Z,26.88
2022-10-21T21:41:23.442Z,28.35
2022-10-21T21:43:52.247Z,27.40
2022-10-21T21:46:24.336Z,27.23
2022-10-21T21:49:00.930Z,27.10
2022-10-21T21:51:31.478Z,26.33
2022-10-21T21:53:59.018Z,26.50
2022-10-21T21:56:27.306Z,27.25
2022-10-21T21:58:58.254Z,28.35
2022-10-21T22:01:30.030Z,27.02
2022-10-21T22:03:58.298Z,26.13
2022-10-21T22:06:28.810Z,26.75
2022-10-21T22:08:56.648Z,27.30
2022-10-21T22:11:27.251Z,27.23
2022-10-21T22:13:54.647Z,28.30
2022-10-21T22:16:24.496Z,28.67
2022-10-21T22:18:52.278Z,27.80
2022-10-21T22:21:20.235Z,28.77
2022-10-21T22:23:48.593Z,29.40
2022-10-21T22:26:16.589Z,27.83
2022-10-21T22:28:44.547Z,27.10
2022-10-21T22:31:16.053Z,27.55
2022-10-21T22:36:16.747Z,29.52
2022-10-21T22:38:45.053Z,28.27
2022-10-21T22:41:13.061Z,29.25
2022-10-21T22:43:40.902Z,29.10
2022-10-21T22:48:55.360Z,29.02
2022-10-21T22:51:22.487Z,29.17
2022-10-21T22:53:55.115Z,32.63
2022-10-21T22:56:25.089Z,31.75
2022-10-21T22:58:52.593Z,31.40
2022-10-21T23:01:20.031Z,32.75
2022-10-21T23:03:47.166Z,31.63
2022-10-21T23:06:14.723Z,33.08
2022-10-21T23:08:42.108Z,30.42
2022-10-21T23:11:09.354Z,32.20
2022-10-21T23:13:36.496Z,34.22
2022-10-21T23:16:03.642Z,33.50
2022-10-21T23:18:30.897Z,35.10
2022-10-21T23:20:58.056Z,32.45
2022-10-21T23:23:25.357Z,30.55
2022-10-21T23:25:52.479Z,33.75
2022-10-21T23:28:19.614Z,31.92
2022-10-21T23:30:48.278Z,36.10
2022-10-21T23:33:15.586Z,38.65
2022-10-21T23:35:42.719Z,36.40
2022-10-21T23:38:09.766Z,34.83
2022-10-21T23:40:37.065Z,36.25
2022-10-21T23:43:04.914Z,31.90
2022-10-21T23:45:32.159Z,32.30
2022-10-21T23:47:59.415Z,35.35
2022-10-21T23:50:26.977Z,32.40
2022-10-21T23:52:54.158Z,29.48
2022-10-21T23:55:21.709Z,36.85
2022-10-21T23:57:48.984Z,33.42
